Time;durP1;ratioP1;P1;durP2;ratioP2;P2;SDS_P1;SDS_P2;PMS_P1;PMS_P2;Temp;Humidity;BMP_temperature;BMP_pressure;BME280_temperature;BME280_humidity;BME280_pressure;Samples;Min_cycle;Max_cycle;Signal;HPM_P1;HPM_P2
2022/07/20 00:00:37;;;;;;;9.77;7.53;;;25.20;1.00;;;;;;5027641;28;20453;-62
2022/07/20 00:03:09;;;;;;;10.70;7.70;;;25.10;1.00;;;;;;5028029;28;20155;-62
2022/07/20 00:05:36;;;;;;;7.93;7.10;;;25.10;1.00;;;;;;5043225;28;20497;-63
2022/07/20 00:08:02;;;;;;;11.57;8.17;;;25.10;1.00;;;;;;5027935;28;20468;-62
2022/07/20 00:13:14;;;;;;;8.70;7.60;;;25.00;1.00;;;;;;5027766;28;20397;-60
2022/07/20 00:15:41;;;;;;;39.30;10.60;;;25.00;1.00;;;;;;5028351;28;20457;-62
2022/07/20 00:18:06;;;;;;;11.23;7.23;;;25.00;1.00;;;;;;5026538;28;20517;-62
2022/07/20 00:20:32;;;;;;;9.60;7.57;;;24.90;1.00;;;;;;5022058;28;21000;-61
2022/07/20 00:22:58;;;;;;;11.10;7.60;;;24.90;1.00;;;;;;5008195;28;20244;-61
2022/07/20 00:25:25;;;;;;;9.73;7.43;;;24.80;1.00;;;;;;5008251;28;20183;-61
2022/07/20 00:27:51;;;;;;;12.60;7.53;;;24.80;1.00;;;;;;5006678;28;20651;-64
2022/07/20 00:30:17;;;;;;;7.93;6.90;;;24.80;1.00;;;;;;5013326;28;20430;-60
2022/07/20 00:32:43;;;;;;;19.03;7.87;;;24.80;1.60;;;;;;5022968;28;20171;-63
2022/07/20 00:35:11;;;;;;;84.53;12.23;;;24.80;1.40;;;;;;5024239;28;20420;-62
2022/07/20 00:37:38;;;;;;;9.67;7.00;;;24.80;1.90;;;;;;5018474;28;20221;-62
2022/07/20 00:40:05;;;;;;;12.00;6.47;;;24.70;1.70;;;;;;5008435;28;20926;-62
2022/07/20 00:42:33;;;;;;;9.60;6.83;;;24.70;2.00;;;;;;5007872;28;20515;-63
2022/07/20 00:44:58;;;;;;;11.73;5.97;;;24.80;2.70;;;;;;5020019;28;20640;-60
2022/07/20 00:47:24;;;;;;;11.83;6.60;;;24.60;2.50;;;;;;5027357;28;21155;-62
2022/07/20 00:49:50;;;;;;;12.20;6.53;;;24.70;2.70;;;;;;5026607;28;20183;-61
2022/07/20 00:52:16;;;;;;;9.77;5.83;;;24.70;3.40;;;;;;5028131;28;20179;-62
2022/07/20 00:54:44;;;;;;;11.37;6.70;;;24.60;3.10;;;;;;5027345;28;20167;-62
2022/07/20 00:57:10;;;;;;;8.17;6.30;;;24.50;3.20;;;;;;5016518;28;20196;-63
2022/07/20 00:59:36;;;;;;;10.40;6.73;;;24.50;4.10;;;;;;5006602;28;20784;-62
2022/07/20 01:02:01;;;;;;;9.43;6.93;;;24.50;3.80;;;;;;5007657;28;20303;-62
2022/07/20 01:04:27;;;;;;;11.63;6.50;;;24.50;4.30;;;;;;5007271;28;20206;-62
2022/07/20 01:06:53;;;;;;;24.07;7.40;;;24.50;4.60;;;;;;5007594;28;20258;-62
2022/07/20 01:09:20;;;;;;;7.70;7.00;;;24.40;4.90;;;;;;5007419;28;20173;-63
2022/07/20 01:11:46;;;;;;;7.03;6.00;;;24.40;4.80;;;;;;5011347;28;20727;-62
2022/07/20 01:14:12;;;;;;;8.50;6.40;;;24.40;5.80;;;;;;5011181;28;20891;-62
2022/07/20 01:16:38;;;;;;;14.83;6.30;;;24.30;5.50;;;;;;5011642;28;20470;-61
2022/07/20 01:19:06;;;;;;;15.33;7.17;;;24.20;16.20;;;;;;5009878;28;20160;-62
2022/07/20 01:21:32;;;;;;;7.07;6.23;;;24.20;6.30;;;;;;5011083;28;20869;-63
2022/07/20 01:23:58;;;;;;;6.47;5.87;;;24.00;6.70;;;;;;5010711;28;20896;-63
2022/07/20 01:26:24;;;;;;;7.73;6.27;;;24.00;17.40;;;;;;5011698;28;20439;-65
2022/07/20 01:28:50;;;;;;;11.47;6.43;;;24.00;7.70;;;;;;5009697;28;20570;-62
2022/07/20 01:31:16;;;;;;;15.43;6.70;;;24.10;8.30;;;;;;5011019;28;20427;-63
2022/07/20 01:33:42;;;;;;;32.70;8.40;;;24.00;8.70;;;;;;5010291;28;20498;-63
2022/07/20 01:36:08;;;;;;;11.00;6.53;;;24.10;9.50;;;;;;5011030;28;20214;-63
2022/07/20 01:38:34;;;;;;;15.67;6.80;;;24.10;9.30;;;;;;5008997;28;20247;-62
2022/07/20 01:40:59;;;;;;;11.93;6.30;;;24.00;9.50;;;;;;5010729;28;20514;-63
2022/07/20 01:43:25;;;;;;;11.53;6.47;;;24.00;10.10;;;;;;5009803;28;20168;-62
2022/07/20 01:45:51;;;;;;;12.37;6.73;;;24.00;10.00;;;;;;5030451;28;20199;-63
2022/07/20 01:48:17;;;;;;;33.90;8.10;;;24.00;10.20;;;;;;5028857;28;20225;-62
2022/07/20 01:50:42;;;;;;;17.30;6.50;;;24.10;11.20;;;;;;5030378;28;20226;-62
2022/07/20 01:53:08;;;;;;;11.03;7.00;;;24.10;11.20;;;;;;5029672;28;20163;-61
2022/07/20 01:55:34;;;;;;;14.40;7.50;;;24.20;11.20;;;;;;5030207;28;20276;-63
2022/07/20 01:58:00;;;;;;;9.57;7.27;;;24.30;11.60;;;;;;5028948;28;20481;-62
2022/07/20 02:00:26;;;;;;;17.43;8.70;;;24.10;11.20;;;;;;5029594;28;20482;-61
2022/07/20 02:02:52;;;;;;;21.57;8.43;;;24.10;11.40;;;;;;5030483;28;20163;-63
2022/07/20 02:05:19;;;;;;;11.40;8.07;;;24.00;11.30;;;;;;5029869;28;20190;-63
2022/07/20 02:07:45;;;;;;;9.30;8.00;;;23.90;11.40;;;;;;5029075;28;20464;-62
2022/07/20 02:10:13;;;;;;;15.30;9.00;;;24.00;11.60;;;;;;5029046;28;20489;-63
2022/07/20 02:12:39;;;;;;;33.70;8.70;;;24.00;11.70;;;;;;5029869;28;20414;-61
2022/07/20 02:15:07;;;;;;;13.67;7.70;;;24.00;12.00;;;;;;5029253;28;20425;-63
2022/07/20 02:17:33;;;;;;;18.17;8.37;;;23.90;12.10;;;;;;5029408;28;20933;-62
2022/07/20 02:19:59;;;;;;;13.77;7.57;;;23.80;11.70;;;;;;5026938;28;20449;-62
2022/07/20 02:22:25;;;;;;;14.03;8.40;;;23.80;12.00;;;;;;5008855;28;20192;-61
2022/07/20 02:24:50;;;;;;;13.53;7.40;;;23.90;12.40;;;;;;5009002;28;20164;-62
2022/07/20 02:27:17;;;;;;;8.77;6.87;;;23.90;12.20;;;;;;5008969;28;20411;-60
2022/07/20 02:29:42;;;;;;;9.63;7.60;;;23.80;11.90;;;;;;5008766;28;20172;-62
2022/07/20 02:32:08;;;;;;;13.33;8.53;;;23.80;12.10;;;;;;5009859;28;20884;-61
2022/07/20 02:34:34;;;;;;;10.60;8.03;;;23.70;22.00;;;;;;5009428;28;20173;-62
2022/07/20 02:36:59;;;;;;;9.57;7.27;;;23.70;12.40;;;;;;5008856;28;20303;-63
2022/07/20 02:39:25;;;;;;;11.07;7.20;;;23.70;12.70;;;;;;5008345;28;20535;-62
2022/07/20 02:41:51;;;;;;;12.63;7.50;;;23.70;13.20;;;;;;5009668;28;20192;-62
2022/07/20 02:44:16;;;;;;;9.00;7.03;;;23.70;13.50;;;;;;5015884;28;20183;-62
2022/07/20 02:46:42;;;;;;;10.70;7.63;;;23.70;13.10;;;;;;5029341;28;20639;-63
2022/07/20 02:49:08;;;;;;;9.70;7.33;;;23.60;13.00;;;;;;5027909;28;20219;-62
2022/07/20 02:51:34;;;;;;;19.83;8.20;;;23.60;13.70;;;;;;5029000;28;20201;-61
2022/07/20 02:54:00;;;;;;;13.47;8.37;;;23.60;13.70;;;;;;5028511;28;20265;-62
2022/07/20 02:56:25;;;;;;;19.67;9.80;;;23.60;13.60;;;;;;5028968;28;20207;-61
2022/07/20 02:58:51;;;;;;;17.50;7.70;;;23.60;13.80;;;;;;5027653;28;20390;-62
2022/07/20 03:01:17;;;;;;;37.83;9.27;;;23.50;13.90;;;;;;5029066;28;20206;-62
2022/07/20 03:03:42;;;;;;;15.83;7.80;;;23.50;14.20;;;;;;5027833;28;20179;-62
2022/07/20 03:06:09;;;;;;;15.00;8.50;;;23.60;14.60;;;;;;5029034;28;20197;-63
2022/07/20 03:08:35;;;;;;;14.07;8.33;;;23.50;14.60;;;;;;5027588;28;20665;-61
2022/07/20 03:11:01;;;;;;;12.97;8.00;;;23.50;14.60;;;;;;5028368;28;20446;-61
2022/07/20 03:13:27;;;;;;;14.17;7.83;;;23.40;14.60;;;;;;5028033;28;20525;-62
2022/07/20 03:15:53;;;;;;;17.00;7.93;;;23.30;14.80;;;;;;5028686;28;20540;-61
2022/07/20 03:18:19;;;;;;;14.90;8.70;;;23.30;15.10;;;;;;5027444;28;20179;-63
2022/07/20 03:20:45;;;;;;;58.97;11.57;;;23.30;15.90;;;;;;5020813;28;20944;-62
2022/07/20 03:23:11;;;;;;;12.73;9.10;;;23.30;16.00;;;;;;5008367;28;20414;-61
2022/07/20 03:25:37;;;;;;;19.60;8.63;;;23.30;15.90;;;;;;5008345;28;20180;-61
2022/07/20 03:28:02;;;;;;;30.43;10.10;;;23.30;16.00;;;;;;5007833;28;20176;-61
2022/07/20 03:30:28;;;;;;;20.60;9.20;;;23.40;16.50;;;;;;5008219;28;20183;-66
2022/07/20 03:32:55;;;;;;;49.27;10.67;;;23.40;17.60;;;;;;5008065;28;20184;-65
2022/07/20 03:35:21;;;;;;;26.80;11.30;;;23.40;16.90;;;;;;5007716;28;20446;-65
2022/07/20 03:37:46;;;;;;;101.20;16.93;;;23.30;27.10;;;;;;5013365;28;20844;-65
2022/07/20 03:40:13;;;;;;;36.93;10.97;;;23.30;17.20;;;;;;5018895;28;20505;-65
2022/07/20 03:42:39;;;;;;;31.30;9.80;;;23.30;17.50;;;;;;5028477;28;20175;-65
2022/07/20 03:45:05;;;;;;;40.53;9.47;;;23.20;18.00;;;;;;5014467;28;20418;-65
2022/07/20 03:47:31;;;;;;;11.83;8.20;;;23.10;17.60;;;;;;5008082;28;20185;-65
2022/07/20 03:49:57;;;;;;;16.90;8.73;;;23.10;17.80;;;;;;5006866;28;20875;-65
2022/07/20 03:52:23;;;;;;;14.07;8.70;;;23.10;18.50;;;;;;5008668;28;20215;-66
2022/07/20 03:54:48;;;;;;;13.93;8.63;;;23.20;18.80;;;;;;5007584;28;20207;-65
2022/07/20 03:57:14;;;;;;;16.90;7.50;;;23.20;18.70;;;;;;5008101;28;20950;-66
2022/07/20 03:59:40;;;;;;;23.73;8.77;;;23.20;19.30;;;;;;5007831;28;20180;-65
2022/07/20 04:02:06;;;;;;;16.50;7.50;;;23.30;18.60;;;;;;5009034;28;20199;-66
2022/07/20 04:04:32;;;;;;;19.63;8.50;;;23.30;19.10;;;;;;5007657;28;20183;-66
2022/07/20 04:06:58;;;;;;;37.63;10.37;;;23.40;20.00;;;;;;5007949;28;20168;-67
2022/07/20 04:12:10;;;;;;;12.87;8.17;;;23.30;19.80;;;;;;5008505;28;20207;-67
2022/07/20 04:14:36;;;;;;;12.40;7.67;;;23.30;20.10;;;;;;5007645;28;20484;-66
2022/07/20 04:17:02;;;;;;;34.80;9.43;;;23.40;20.30;;;;;;5007827;28;20483;-66
2022/07/20 04:19:28;;;;;;;21.03;7.60;;;23.50;20.60;;;;;;5007202;28;20664;-67
2022/07/20 04:21:55;;;;;;;20.47;9.37;;;23.60;20.70;;;;;;5008314;28;20431;-67
2022/07/20 04:24:22;;;;;;;29.07;8.97;;;23.50;20.50;;;;;;5007534;28;20414;-66
2022/07/20 04:26:48;;;;;;;33.63;10.03;;;23.60;21.10;;;;;;5008140;28;20411;-67
2022/07/20 04:29:14;;;;;;;38.27;10.40;;;23.50;20.20;;;;;;5006486;28;20407;-67
2022/07/20 04:31:39;;;;;;;27.13;11.30;;;23.40;20.60;;;;;;5008011;28;20198;-65
2022/07/20 04:34:05;;;;;;;63.63;15.00;;;23.50;21.10;;;;;;5007670;28;20172;-69
2022/07/20 04:36:31;;;;;;;82.67;14.77;;;23.60;21.30;;;;;;5011742;28;20943;-67
2022/07/20 04:38:56;;;;;;;79.47;13.83;;;23.90;22.50;;;;;;5005320;28;20183;-67
2022/07/20 04:41:22;;;;;;;101.27;18.50;;;24.10;22.00;;;;;;5008265;28;20196;-68
2022/07/20 04:43:48;;;;;;;97.07;17.20;;;24.10;21.50;;;;;;5010286;28;20243;-66
2022/07/20 04:46:14;;;;;;;40.10;14.20;;;24.10;21.40;;;;;;5011769;28;20769;-68
2022/07/20 04:48:39;;;;;;;25.90;10.27;;;24.30;21.60;;;;;;5010286;28;20194;-68
2022/07/20 04:51:05;;;;;;;14.10;9.47;;;24.30;20.70;;;;;;5010738;28;20333;-67
2022/07/20 04:53:31;;;;;;;24.13;9.90;;;24.30;20.90;;;;;;5010234;28;20183;-67
2022/07/20 04:55:56;;;;;;;38.90;12.10;;;24.30;20.50;;;;;;5009777;28;20599;-65
2022/07/20 04:58:22;;;;;;;68.97;13.30;;;24.30;20.50;;;;;;5007679;28;20186;-67
2022/07/20 05:00:48;;;;;;;119.17;17.13;;;24.50;20.30;;;;;;5008576;28;20195;-68
2022/07/20 05:03:13;;;;;;;37.80;12.03;;;24.90;21.00;;;;;;5008470;28;20571;-67
2022/07/20 05:05:39;;;;;;;75.73;13.20;;;25.10;20.70;;;;;;5009314;28;20183;-68
2022/07/20 05:08:05;;;;;;;51.60;11.43;;;25.30;20.40;;;;;;5008138;28;20274;-66
2022/07/20 05:10:30;;;;;;;27.03;9.13;;;25.10;19.10;;;;;;5008655;28;20199;-65
2022/07/20 05:12:56;;;;;;;25.17;9.00;;;25.10;19.00;;;;;;5008557;28;20754;-67
2022/07/20 05:15:25;;;;;;;32.90;10.77;;;25.10;18.70;;;;;;5009360;28;20293;-67
2022/07/20 05:17:51;;;;;;;17.53;8.83;;;25.40;18.50;;;;;;5008343;28;20205;-65
2022/07/20 05:20:17;;;;;;;19.23;10.13;;;25.60;24.30;;;;;;5007609;28;20413;-66
2022/07/20 05:22:43;;;;;;;20.37;10.20;;;25.70;18.50;;;;;;5003985;28;20410;-65
2022/07/20 05:25:09;;;;;;;43.23;11.17;;;25.50;17.10;;;;;;5008626;28;21138;-68
2022/07/20 05:27:35;;;;;;;26.10;10.93;;;25.50;16.80;;;;;;5019806;28;20176;-67
2022/07/20 05:30:01;;;;;;;41.90;11.60;;;25.70;26.70;;;;;;5009343;28;20191;-67
2022/07/20 05:32:27;;;;;;;16.30;7.70;;;26.00;16.40;;;;;;5008782;28;20477;-68
2022/07/20 05:34:54;;;;;;;40.70;10.03;;;26.00;16.00;;;;;;5013218;28;20975;-67
2022/07/20 05:37:20;;;;;;;20.67;7.93;;;26.00;14.60;;;;;;5009569;28;20272;-66
2022/07/20 05:39:46;;;;;;;9.33;6.10;;;26.00;14.10;;;;;;5007594;28;20805;-66
2022/07/20 05:42:11;;;;;;;13.67;6.43;;;25.70;12.80;;;;;;5008082;28;20434;-64
2022/07/20 05:44:37;;;;;;;8.33;5.57;;;25.30;11.80;;;;;;5012716;28;20246;-67
2022/07/20 05:47:06;;;;;;;13.13;6.43;;;25.00;11.80;;;;;;5007628;28;20180;-66
2022/07/20 05:49:33;;;;;;;19.00;6.50;;;25.10;11.90;;;;;;5008327;28;20652;-66
2022/07/20 05:51:59;;;;;;;13.23;6.00;;;25.70;13.60;;;;;;5016486;28;20438;-64
2022/07/20 05:54:24;;;;;;;13.87;6.60;;;25.90;12.10;;;;;;5011770;28;20497;-66
2022/07/20 05:56:50;;;;;;;28.63;7.80;;;25.70;11.10;;;;;;5006488;28;20620;-66
2022/07/20 05:59:16;;;;;;;24.87;9.20;;;26.20;11.90;;;;;;5010347;28;20167;-66
2022/07/20 06:01:44;;;;;;;15.70;11.50;;;26.10;10.50;;;;;;5028281;28;20244;-66
2022/07/20 06:04:11;;;;;;;32.30;18.57;;;26.20;10.60;;;;;;5016587;28;20282;-65
2022/07/20 06:06:37;;;;;;;20.30;13.67;;;26.50;9.90;;;;;;5006964;28;20419;-66
2022/07/20 06:09:06;;;;;;;20.33;18.33;;;26.00;8.10;;;;;;5006449;28;20509;-65
2022/07/20 06:11:33;;;;;;;32.83;24.17;;;26.30;8.40;;;;;;5007679;28;20462;-66
2022/07/20 06:13:59;;;;;;;28.33;25.23;;;26.60;8.40;;;;;;5006958;28;20481;-65
2022/07/20 06:16:25;;;;;;;39.63;29.03;;;26.50;7.10;;;;;;5007398;28;20494;-65
2022/07/20 06:18:51;;;;;;;53.63;30.23;;;26.40;6.60;;;;;;5005916;28;20255;-65
2022/07/20 06:21:17;;;;;;;11.60;6.63;;;26.40;6.30;;;;;;5005155;28;20244;-67
2022/07/20 06:23:42;;;;;;;93.90;21.97;;;26.40;6.10;;;;;;5005712;28;20171;-65
2022/07/20 06:26:08;;;;;;;272.00;35.30;;;26.30;6.50;;;;;;5007803;28;20181;-65
2022/07/20 06:28:35;;;;;;;63.53;20.90;;;27.10;7.10;;;;;;5005646;28;20168;-65
2022/07/20 06:31:00;;;;;;;41.97;27.43;;;27.40;6.10;;;;;;5007351;28;20683;-67
2022/07/20 06:33:26;;;;;;;59.03;25.23;;;27.50;5.00;;;;;;5006112;28;20458;-65
2022/07/20 06:35:52;;;;;;;93.60;25.43;;;27.80;4.50;;;;;;5006533;28;20192;-66
2022/07/20 06:38:18;;;;;;;66.13;22.10;;;28.10;3.70;;;;;;5006753;28;20199;-66
2022/07/20 06:40:44;;;;;;;38.90;19.23;;;28.30;3.10;;;;;;5008740;28;20219;-65
2022/07/20 06:43:10;;;;;;;30.10;20.27;;;28.40;2.00;;;;;;5006397;28;20422;-66
2022/07/20 06:45:36;;;;;;;22.53;15.90;;;28.70;2.00;;;;;;5014485;28;20431;-66
2022/07/20 06:48:03;;;;;;;31.40;15.30;;;28.90;1.40;;;;;;5008236;28;20636;-66
2022/07/20 06:50:28;;;;;;;34.03;16.50;;;29.10;1.00;;;;;;5007762;28;20422;-64
2022/07/20 06:52:54;;;;;;;42.87;15.60;;;29.10;1.00;;;;;;5008334;28;20417;-67
2022/07/20 06:55:20;;;;;;;18.30;14.03;;;29.20;1.00;;;;;;5007672;28;20187;-66
2022/07/20 06:57:46;;;;;;;72.10;19.07;;;28.90;1.00;;;;;;5007975;28;20383;-65
2022/07/20 07:00:13;;;;;;;31.30;13.50;;;29.00;1.00;;;;;;5007919;28;20617;-67
2022/07/20 07:02:39;;;;;;;61.63;14.43;;;29.10;1.00;;;;;;5007713;28;20182;-66
2022/07/20 07:05:06;;;;;;;26.07;8.90;;;29.50;1.00;;;;;;5008339;28;20855;-67
2022/07/20 07:07:31;;;;;;;69.43;12.30;;;29.60;1.00;;;;;;5007726;28;20429;-68
2022/07/20 07:09:57;;;;;;;26.23;8.23;;;29.80;1.00;;;;;;5007804;28;20414;-67
2022/07/20 07:12:23;;;;;;;30.27;9.10;;;29.70;1.00;;;;;;5008632;28;20679;-65
2022/07/20 07:14:49;;;;;;;64.57;12.47;;;29.60;1.00;;;;;;5007956;28;20536;-67
2022/07/20 07:17:15;;;;;;;47.80;11.37;;;29.90;1.00;;;;;;5007900;28;20203;-67
2022/07/20 07:19:41;;;;;;;64.70;12.50;;;30.00;1.00;;;;;;5007329;28;20329;-67
2022/07/20 07:22:07;;;;;;;54.87;10.80;;;30.10;1.00;;;;;;5008361;28;20621;-65
2022/07/20 07:24:32;;;;;;;40.90;10.00;;;30.30;1.00;;;;;;5007869;28;20176;-69
2022/07/20 07:26:58;;;;;;;90.03;15.43;;;30.10;1.00;;;;;;5007902;28;20180;-68
2022/07/20 07:29:24;;;;;;;14.23;8.20;;;29.70;1.00;;;;;;5007853;28;20208;-66
2022/07/20 07:31:50;;;;;;;58.93;12.03;;;30.00;1.00;;;;;;5012870;28;20278;-64
2022/07/20 07:34:16;;;;;;;145.80;18.90;;;30.30;1.00;;;;;;5007727;28;21061;-64
2022/07/20 07:36:42;;;;;;;54.83;11.23;;;30.50;1.00;;;;;;5007613;28;20202;-66
2022/07/20 07:39:08;;;;;;;59.23;10.97;;;30.40;1.00;;;;;;5006348;28;20335;-65
2022/07/20 07:41:34;;;;;;;69.70;12.07;;;30.10;1.00;;;;;;5008265;28;20307;-65
2022/07/20 07:43:59;;;;;;;65.03;12.90;;;30.40;1.00;;;;;;5012442;28;21089;-65
2022/07/20 07:46:25;;;;;;;89.63;15.93;;;30.70;1.00;;;;;;5008907;28;20175;-62
2022/07/20 07:48:51;;;;;;;51.57;11.47;;;30.90;1.00;;;;;;5008227;28;20180;-64
2022/07/20 07:51:17;;;;;;;22.13;8.47;;;31.00;1.00;;;;;;5013218;28;20545;-63
2022/07/20 07:53:43;;;;;;;34.77;9.40;;;31.10;1.00;;;;;;5008506;28;20271;-64
2022/07/20 07:56:09;;;;;;;55.57;11.83;;;31.30;1.00;;;;;;5008236;28;20226;-64
2022/07/20 07:58:34;;;;;;;35.27;9.97;;;31.30;1.00;;;;;;5005209;28;20250;-62
2022/07/20 08:01:00;;;;;;;18.43;9.70;;;31.10;1.00;;;;;;5008800;28;20211;-63
2022/07/20 08:03:26;;;;;;;48.70;14.50;;;30.40;1.00;;;;;;5007998;28;20149;-61
2022/07/20 08:05:52;;;;;;;73.13;16.97;;;30.30;1.00;;;;;;5011732;28;20238;-63
2022/07/20 08:08:17;;;;;;;29.00;13.07;;;30.20;1.00;;;;;;5007650;28;20175;-66
2022/07/20 08:10:44;;;;;;;34.13;14.40;;;30.70;1.00;;;;;;5008182;28;20325;-65
2022/07/20 08:13:11;;;;;;;79.93;17.37;;;31.10;1.00;;;;;;5008105;28;20187;-62
2022/07/20 08:15:37;;;;;;;57.87;15.40;;;31.40;1.00;;;;;;5007421;28;20615;-64
2022/07/20 08:18:03;;;;;;;32.33;14.67;;;31.50;1.00;;;;;;5008239;28;20423;-63
2022/07/20 08:20:29;;;;;;;48.03;10.80;;;31.70;1.00;;;;;;5010998;28;20426;-64
2022/07/20 08:22:55;;;;;;;39.43;11.07;;;31.70;1.00;;;;;;5012089;28;20411;-65
2022/07/20 08:25:21;;;;;;;71.77;12.60;;;31.50;1.00;;;;;;5012052;28;20193;-63
2022/07/20 08:27:48;;;;;;;29.10;8.77;;;31.20;1.00;;;;;;5013653;28;20173;-63
2022/07/20 08:30:14;;;;;;;9.80;7.00;;;31.30;1.00;;;;;;5010923;28;20194;-63
2022/07/20 08:32:40;;;;;;;97.27;16.50;;;31.10;1.00;;;;;;5023794;28;20468;-64
2022/07/20 08:35:06;;;;;;;68.87;11.63;;;31.10;1.00;;;;;;5031125;28;20917;-62
2022/07/20 08:37:32;;;;;;;23.87;7.10;;;30.90;1.00;;;;;;5011898;28;20191;-65
2022/07/20 08:39:58;;;;;;;15.20;6.50;;;31.00;1.00;;;;;;5010841;28;20708;-64
2022/07/20 08:42:24;;;;;;;43.83;9.73;;;31.00;1.00;;;;;;5011764;28;20191;-65
2022/07/20 08:44:50;;;;;;;45.17;10.20;;;31.10;1.00;;;;;;5013721;28;20239;-65
2022/07/20 08:47:16;;;;;;;40.07;8.80;;;31.40;1.00;;;;;;5020643;28;20257;-65
2022/07/20 08:49:47;;;;;;;46.37;11.90;;;31.70;1.00;;;;;;5009640;28;20179;-65
2022/07/20 08:52:14;;;;;;;23.80;8.33;;;31.90;1.00;;;;;;5011123;28;20518;-65
2022/07/20 08:54:40;;;;;;;61.43;11.03;;;32.20;1.00;;;;;;5010507;28;20244;-65
2022/07/20 08:57:16;;;;;;;28.00;8.80;;;32.20;1.00;;;;;;5010306;28;20643;-64
2022/07/20 08:59:45;;;;;;;33.33;8.40;;;32.20;1.00;;;;;;5008220;28;20188;-66
2022/07/20 09:02:12;;;;;;;48.90;10.50;;;32.20;1.00;;;;;;5018581;28;20202;-67
2022/07/20 09:04:55;;;;;;;68.07;12.93;;;32.30;1.00;;;;;;5030543;28;20291;-65
2022/07/20 09:07:45;;;;;;;53.77;9.63;;;32.30;1.00;;;;;;5014151;28;20175;-65
2022/07/20 09:10:12;;;;;;;63.83;11.17;;;32.20;1.00;;;;;;5008496;28;20183;-65
2022/07/20 09:13:06;;;;;;;30.60;8.80;;;32.20;1.00;;;;;;5010030;28;20608;-65
2022/07/20 09:15:42;;;;;;;22.87;8.33;;;32.30;1.00;;;;;;5008059;28;20188;-66
2022/07/20 09:18:10;;;;;;;48.67;11.73;;;32.30;1.00;;;;;;5008914;28;20650;-66
2022/07/20 09:20:39;;;;;;;67.50;12.50;;;32.40;1.00;;;;;;5009862;28;20276;-66
2022/07/20 09:23:40;;;;;;;54.77;11.20;;;32.50;1.00;;;;;;5010082;28;20179;-65
2022/07/20 09:26:12;;;;;;;16.40;7.47;;;32.50;1.00;;;;;;4964098;28;20186;-65
2022/07/20 09:28:43;;;;;;;17.30;9.23;;;32.00;1.00;;;;;;5008873;28;20278;-66
2022/07/20 09:31:20;;;;;;;21.93;8.43;;;31.90;1.00;;;;;;5010250;28;20204;-66
2022/07/20 09:34:08;;;;;;;64.63;11.23;;;32.00;1.00;;;;;;4991110;28;20180;-65
2022/07/20 09:36:42;;;;;;;57.60;13.17;;;32.30;1.00;;;;;;5001259;28;20207;-65
2022/07/20 09:39:19;;;;;;;20.20;8.07;;;32.60;1.00;;;;;;5009522;28;20195;-64
2022/07/20 09:41:52;;;;;;;27.93;8.87;;;32.80;1.00;;;;;;5010605;28;20196;-66
2022/07/20 09:44:31;;;;;;;19.43;8.20;;;32.70;1.00;;;;;;5010443;28;20170;-65
2022/07/20 09:46:58;;;;;;;83.13;12.83;;;32.60;1.00;;;;;;5010708;28;20179;-66
2022/07/20 09:49:32;;;;;;;15.83;8.97;;;32.80;1.00;;;;;;5008701;28;20199;-64
2022/07/20 09:52:00;;;;;;;27.77;8.93;;;32.90;1.00;;;;;;5003834;28;20393;-64
2022/07/20 09:54:26;;;;;;;20.23;7.23;;;32.90;1.00;;;;;;5009306;28;20172;-64
2022/07/20 09:56:52;;;;;;;23.83;8.20;;;32.70;1.00;;;;;;5009935;28;20226;-64
2022/07/20 09:59:20;;;;;;;17.13;8.67;;;32.60;1.00;;;;;;5009253;28;20628;-63
2022/07/20 10:01:54;;;;;;;68.30;10.47;;;32.70;1.00;;;;;;5013858;28;20731;-64
2022/07/20 10:04:21;;;;;;;18.33;7.97;;;32.90;1.00;;;;;;5029952;28;20670;-63
2022/07/20 10:06:48;;;;;;;12.33;7.60;;;32.90;1.00;;;;;;5017992;28;20658;-64
2022/07/20 10:09:15;;;;;;;48.93;11.17;;;32.70;1.00;;;;;;5009461;28;20191;-64
2022/07/20 10:11:42;;;;;;;25.70;8.27;;;32.90;1.00;;;;;;5013856;28;20195;-64
2022/07/20 10:14:08;;;;;;;21.30;7.63;;;32.90;1.00;;;;;;5009520;28;20279;-65
2022/07/20 10:16:39;;;;;;;25.13;8.50;;;33.00;1.00;;;;;;5009197;28;20402;-67
2022/07/20 10:19:06;;;;;;;24.73;8.57;;;33.20;1.00;;;;;;5008222;28;20164;-66
2022/07/20 10:21:37;;;;;;;18.00;7.80;;;33.30;1.00;;;;;;5005066;28;20191;-66
2022/07/20 10:24:25;;;;;;;27.17;8.53;;;33.00;1.00;;;;;;5002922;28;20278;-67
2022/07/20 10:26:54;;;;;;;11.93;7.37;;;33.10;1.00;;;;;;5012390;28;20275;-66
2022/07/20 10:29:43;;;;;;;16.00;7.90;;;33.10;1.00;;;;;;5006578;28;20176;-66
2022/07/20 10:32:23;;;;;;;12.93;7.33;;;33.00;1.00;;;;;;5013747;28;20207;-67
2022/07/20 10:34:54;;;;;;;7.37;6.70;;;33.20;1.00;;;;;;5018587;28;20228;-66
2022/07/20 10:37:25;;;;;;;17.07;7.70;;;33.30;1.00;;;;;;5013195;28;20196;-66
2022/07/20 10:40:04;;;;;;;10.23;6.27;;;33.20;1.00;;;;;;5007441;28;20545;-66
2022/07/20 10:42:31;;;;;;;18.40;7.10;;;33.40;1.00;;;;;;5008191;28;20196;-66
2022/07/20 10:45:23;;;;;;;9.53;6.33;;;33.40;1.00;;;;;;5009123;28;20175;-67
2022/07/20 10:47:52;;;;;;;6.63;6.10;;;33.20;1.00;;;;;;5009199;28;20602;-67
2022/07/20 10:50:45;;;;;;;12.40;7.00;;;33.20;1.00;;;;;;5008358;28;20172;-66
2022/07/20 10:53:11;;;;;;;16.48;6.93;;;33.30;1.00;;;;;;5007439;28;20160;-67
2022/07/20 10:55:37;;;;;;;14.80;6.47;;;33.50;1.00;;;;;;5009297;28;20186;-66
2022/07/20 10:58:06;;;;;;;9.03;6.37;;;33.40;1.00;;;;;;5020255;28;20179;-66
2022/07/20 11:00:34;;;;;;;9.57;6.65;;;33.20;1.00;;;;;;5003381;28;20187;-68
2022/07/20 11:03:01;;;;;;;8.03;5.90;;;33.30;1.00;;;;;;5021738;28;20195;-66
2022/07/20 11:05:27;;;;;;;8.37;6.13;;;33.30;1.00;;;;;;5008886;28;20250;-66
2022/07/20 11:07:53;;;;;;;6.10;5.47;;;33.30;1.00;;;;;;5006762;28;20570;-66
2022/07/20 11:10:30;;;;;;;9.77;6.57;;;33.40;1.00;;;;;;5008858;28;20179;-66
2022/07/20 11:12:58;;;;;;;19.50;6.77;;;33.40;1.00;;;;;;5008747;28;20191;-66
2022/07/20 11:15:45;;;;;;;24.60;7.00;;;33.50;1.00;;;;;;5008688;28;20226;-66
2022/07/20 11:18:17;;;;;;;10.07;5.60;;;33.50;1.00;;;;;;5007469;28;20172;-66
2022/07/20 11:20:52;;;;;;;8.10;5.32;;;33.60;1.00;;;;;;5008842;28;20270;-65
2022/07/20 11:23:21;;;;;;;13.60;6.13;;;33.70;1.00;;;;;;5007957;28;20187;-66
2022/07/20 11:25:56;;;;;;;16.60;5.70;;;33.70;1.00;;;;;;5004126;28;20499;-66
2022/07/20 11:28:33;;;;;;;10.53;5.30;;;33.80;1.00;;;;;;5008473;28;20699;-66
2022/07/20 11:31:01;;;;;;;8.10;5.25;;;33.70;1.00;;;;;;5008323;28;20198;-66
2022/07/20 11:33:32;;;;;;;14.32;6.70;;;33.60;1.00;;;;;;5022663;28;20178;-67
2022/07/20 11:36:10;;;;;;;9.43;5.40;;;33.50;1.00;;;;;;5020113;28;20211;-66
2022/07/20 11:38:45;;;;;;;17.00;6.00;;;33.50;1.00;;;;;;5010200;28;20224;-66
2022/07/20 11:41:31;;;;;;;10.30;6.00;;;33.60;1.00;;;;;;5009458;28;20190;-66
2022/07/20 11:43:59;;;;;;;25.27;7.00;;;33.70;1.00;;;;;;5009291;28;20397;-66
2022/07/20 11:46:30;;;;;;;19.10;5.85;;;33.70;1.00;;;;;;5007206;28;20543;-66
2022/07/20 11:49:02;;;;;;;14.50;5.80;;;33.60;1.00;;;;;;5005376;28;20183;-66
2022/07/20 11:51:29;;;;;;;8.27;5.40;;;33.60;1.00;;;;;;5009032;28;20245;-66
2022/07/20 11:53:57;;;;;;;9.63;6.00;;;33.70;1.00;;;;;;5008605;28;20175;-66
2022/07/20 11:56:27;;;;;;;6.27;5.77;;;33.70;1.00;;;;;;5003764;28;20222;-65
2022/07/20 11:58:56;;;;;;;10.07;6.83;;;33.70;1.00;;;;;;5007728;28;20172;-66
2022/07/20 12:01:23;;;;;;;9.83;5.77;;;33.80;1.00;;;;;;5010860;28;20570;-66
2022/07/20 12:04:10;;;;;;;14.60;6.75;;;33.70;1.00;;;;;;4990989;28;20180;-66
2022/07/20 12:06:38;;;;;;;10.20;5.97;;;33.90;1.00;;;;;;5005315;28;20168;-66
2022/07/20 12:09:09;;;;;;;8.93;5.63;;;33.90;1.00;;;;;;5005928;28;20176;-66
2022/07/20 12:11:52;;;;;;;8.17;6.13;;;33.90;1.00;;;;;;5007519;28;20719;-66
2022/07/20 12:14:42;;;;;;;12.20;6.90;;;33.90;1.00;;;;;;5006681;28;20180;-65
2022/07/20 12:17:16;;;;;;;9.53;5.40;;;33.90;1.00;;;;;;5006763;28;20740;-66
2022/07/20 12:19:43;;;;;;;20.23;6.67;;;33.90;1.00;;;;;;5006404;28;20199;-66
2022/07/20 12:22:31;;;;;;;8.80;6.50;;;33.80;1.00;;;;;;5007041;28;20208;-66
2022/07/20 12:24:59;;;;;;;7.03;5.50;;;33.80;1.00;;;;;;5013073;28;20167;-66
2022/07/20 12:27:30;;;;;;;7.70;5.40;;;33.80;1.00;;;;;;5006999;28;20249;-66
2022/07/20 12:29:57;;;;;;;12.30;5.53;;;33.70;1.00;;;;;;5007338;28;20176;-67
2022/07/20 12:32:34;;;;;;;8.13;6.27;;;33.80;1.00;;;;;;5007813;28;20203;-66
2022/07/20 12:35:05;;;;;;;6.97;5.93;;;33.80;1.00;;;;;;5004646;28;20171;-66
2022/07/20 12:37:51;;;;;;;15.33;6.90;;;33.90;1.00;;;;;;5005976;28;20202;-66
2022/07/20 12:40:36;;;;;;;13.57;6.00;;;33.90;1.00;;;;;;5001865;28;20186;-66
2022/07/20 12:43:03;;;;;;;12.00;7.30;;;33.90;1.00;;;;;;5003974;28;20262;-67
2022/07/20 12:45:29;;;;;;;14.87;7.10;;;34.00;1.00;;;;;;5005330;28;20180;-65
2022/07/20 12:47:55;;;;;;;8.35;5.68;;;34.30;1.00;;;;;;5005849;28;20164;-67
2022/07/20 12:50:21;;;;;;;10.63;6.53;;;34.40;1.00;;;;;;5003324;28;20258;-65